Hai Yang Shi You 708 — BFDL — position and weather

sailwx.info

Track history (hours):
 
Tides and Currents Weather Stations Pressure Air Temp Water Temp Dewpoint Dewpoint Depression Visibility Wind Speed Wind Dir Waves Ship Positions

Hai Yang Shi You 708

Last reported at 2015-Aug-28 09:30 UTC. Time now 2015-Aug-28 12:47 UTC.
Position N 22°28' E 113°54'.

Length 105 m; draft 7 m.

Type: Other ship. MMSI: 413303010.

Date/timePositionNaut miles runAvg speedWind from/ knotsBaromVisibWave heightAir tempDewpointWater temp
2015-Aug-28 09:30N 22°28' E 113°54'0 0.0
2015-Aug-28 08:18N 22°28' E 113°54'0 0.0
2015-Aug-28 07:18N 22°28' E 113°54'0 0.0
2015-Aug-28 06:06N 22°28' E 113°54'0 0.0
2015-Aug-28 05:30N 22°28' E 113°54'0 0.0
2015-Aug-28 04:18N 22°28' E 113°54'0 0.0
2015-Aug-28 03:30N 22°28' E 113°54'0 0.0
2015-Aug-28 02:30N 22°28' E 113°54'0 0.0
2015-Aug-28 01:18N 22°28' E 113°54'0 0.0
2015-Aug-28 00:30N 22°28' E 113°54'0 0.0
2015-Aug-27 09:30N 22°28' E 113°54'0 0.0
2015-Aug-27 08:30N 22°28' E 113°54'0 0.0
2015-Aug-27 07:18N 22°28' E 113°54'0 0.0
2015-Aug-27 06:30N 22°28' E 113°54'0 0.0
2015-Aug-27 05:30N 22°28' E 113°54'0 0.0
2015-Aug-27 04:18N 22°28' E 113°54'0 0.0
2015-Aug-27 03:24N 22°28' E 113°54'0 0.0
2015-Aug-27 02:24N 22°28' E 113°54'0 0.0
2015-Aug-27 01:30N 22°28' E 113°54'0 0.0
2015-Aug-27 00:30N 22°28' E 113°54'0 0.0
2015-Aug-26 09:30N 22°28' E 113°54'0 0.0
2015-Aug-26 08:24N 22°28' E 113°54'0 0.0
2015-Aug-26 07:24N 22°28' E 113°54'0 0.0
2015-Aug-26 06:24N 22°28' E 113°54'0 0.0
2015-Aug-26 05:24N 22°28' E 113°54'0 0.0
2015-Aug-26 04:12N 22°28' E 113°54'0 0.0
2015-Aug-26 03:30N 22°28' E 113°54'0 0.0
2015-Aug-26 02:18N 22°28' E 113°54'0 0.0
2015-Aug-25 09:30N 22°28' E 113°54'0 0.0
2015-Aug-25 08:30N 22°28' E 113°54'0 0.0
2015-Aug-25 07:30N 22°28' E 113°54'0 0.0
2015-Aug-25 06:24N 22°28' E 113°54'0 0.0
2015-Aug-25 05:30N 22°28' E 113°54'0 0.0
2015-Aug-25 04:30N 22°28' E 113°54'0 0.0
2015-Aug-25 03:30N 22°28' E 113°54'0 0.0
2015-Aug-25 02:30N 22°28' E 113°54'0 0.0
2015-Aug-25 01:30N 22°28' E 113°54'0 0.0
2015-Aug-25 00:30N 22°28' E 113°54'0 0.0
2015-Aug-24 23:33N 22°28' E 113°54'5 4.8
2015-Aug-24 22:33N 22°24' E 113°51'9 8.9
2015-Aug-24 21:33N 22°16' E 113°48'7 7.2
2015-Aug-24 20:33N 22°09' E 113°47'0 0.0
2015-Aug-24 19:30N 22°09' E 113°47'0 0.0
2015-Aug-24 18:30N 22°09' E 113°47'0 0.0
2015-Aug-24 17:30N 22°09' E 113°47'0 0.0
2015-Aug-24 16:30N 22°09' E 113°47'0 0.0
2015-Aug-24 15:30N 22°09' E 113°47'0 0.0
2015-Aug-24 14:30N 22°09' E 113°47'0 0.0
2015-Aug-24 13:30N 22°09' E 113°47'1 1.0
2015-Aug-24 12:33N 22°08' E 113°48'  
Track history (hours):
 
Tides and Currents Weather Stations Pressure Air Temp Water Temp Dewpoint Dewpoint Depression Visibility Wind Speed Wind Dir Waves Ship Positions

Hai Yang Shi You 708

Last reported at 2015-Aug-28 09:30 UTC. Time now 2015-Aug-28 12:47 UTC.
Position N 22°28' E 113°54'.

Length 105 m; draft 7 m.

Type: Other ship. MMSI: 413303010.

Date/timePositionNaut miles runAvg speedWind from/ knotsBaromVisibWave heightAir tempDewpointWater temp
2015-Aug-28 09:30N 22°28' E 113°54'0 0.0
2015-Aug-28 08:18N 22°28' E 113°54'0 0.0
2015-Aug-28 07:18N 22°28' E 113°54'0 0.0
2015-Aug-28 06:06N 22°28' E 113°54'0 0.0
2015-Aug-28 05:30N 22°28' E 113°54'0 0.0
2015-Aug-28 04:18N 22°28' E 113°54'0 0.0
2015-Aug-28 03:30N 22°28' E 113°54'0 0.0
2015-Aug-28 02:30N 22°28' E 113°54'0 0.0
2015-Aug-28 01:18N 22°28' E 113°54'0 0.0
2015-Aug-28 00:30N 22°28' E 113°54'0 0.0
2015-Aug-27 09:30N 22°28' E 113°54'0 0.0
2015-Aug-27 08:30N 22°28' E 113°54'0 0.0
2015-Aug-27 07:18N 22°28' E 113°54'0 0.0
2015-Aug-27 06:30N 22°28' E 113°54'0 0.0
2015-Aug-27 05:30N 22°28' E 113°54'0 0.0
2015-Aug-27 04:18N 22°28' E 113°54'0 0.0
2015-Aug-27 03:24N 22°28' E 113°54'0 0.0
2015-Aug-27 02:24N 22°28' E 113°54'0 0.0
2015-Aug-27 01:30N 22°28' E 113°54'0 0.0
2015-Aug-27 00:30N 22°28' E 113°54'0 0.0
2015-Aug-26 09:30N 22°28' E 113°54'0 0.0
2015-Aug-26 08:24N 22°28' E 113°54'0 0.0
2015-Aug-26 07:24N 22°28' E 113°54'0 0.0
2015-Aug-26 06:24N 22°28' E 113°54'0 0.0
2015-Aug-26 05:24N 22°28' E 113°54'0 0.0
2015-Aug-26 04:12N 22°28' E 113°54'0 0.0
2015-Aug-26 03:30N 22°28' E 113°54'0 0.0
2015-Aug-26 02:18N 22°28' E 113°54'0 0.0
2015-Aug-25 09:30N 22°28' E 113°54'0 0.0
2015-Aug-25 08:30N 22°28' E 113°54'0 0.0
2015-Aug-25 07:30N 22°28' E 113°54'0 0.0
2015-Aug-25 06:24N 22°28' E 113°54'0 0.0
2015-Aug-25 05:30N 22°28' E 113°54'0 0.0
2015-Aug-25 04:30N 22°28' E 113°54'0 0.0
2015-Aug-25 03:30N 22°28' E 113°54'0 0.0
2015-Aug-25 02:30N 22°28' E 113°54'0 0.0
2015-Aug-25 01:30N 22°28' E 113°54'0 0.0
2015-Aug-25 00:30N 22°28' E 113°54'0 0.0
2015-Aug-24 23:33N 22°28' E 113°54'5 4.8
2015-Aug-24 22:33N 22°24' E 113°51'9 8.9
2015-Aug-24 21:33N 22°16' E 113°48'7 7.2
2015-Aug-24 20:33N 22°09' E 113°47'0 0.0
2015-Aug-24 19:30N 22°09' E 113°47'0 0.0
2015-Aug-24 18:30N 22°09' E 113°47'0 0.0
2015-Aug-24 17:30N 22°09' E 113°47'0 0.0
2015-Aug-24 16:30N 22°09' E 113°47'0 0.0
2015-Aug-24 15:30N 22°09' E 113°47'0 0.0
2015-Aug-24 14:30N 22°09' E 113°47'0 0.0
2015-Aug-24 13:30N 22°09' E 113°47'1 1.0
2015-Aug-24 12:33N 22°08' E 113°48'  

Dump ship's entire track history